Time;durP1;ratioP1;P1;durP2;ratioP2;P2;SDS_P1;SDS_P2;PMS_P1;PMS_P2;Temp;Humidity;BMP_temperature;BMP_pressure;BME280_temperature;BME280_humidity;BME280_pressure;Samples;Min_cycle;Max_cycle;Signal;HPM_P1;HPM_P2
2022/12/12 00:02:17;;;;;;;1.88;1.38;;;;;;;16.37;38.17;95607.44;5093917;28;20044;-34
2022/12/12 00:04:43;;;;;;;2.30;1.25;;;;;;;16.39;39.13;95615.91;5096565;28;20016;-34
2022/12/12 00:07:08;;;;;;;3.05;1.40;;;;;;;16.37;38.42;95616.41;5096481;28;20024;-35
2022/12/12 00:09:34;;;;;;;3.30;1.50;;;;;;;16.32;38.37;95628.03;5096780;28;20047;-34
2022/12/12 00:11:59;;;;;;;2.33;1.20;;;;;;;16.39;37.69;95624.88;5096122;28;20051;-34
2022/12/12 00:14:25;;;;;;;1.55;0.88;;;;;;;16.30;38.09;95622.31;5096435;28;20023;-35
2022/12/12 00:16:50;;;;;;;1.50;0.80;;;;;;;16.32;38.54;95619.09;5096251;28;20042;-34
2022/12/12 00:19:16;;;;;;;1.60;1.10;;;;;;;16.24;38.42;95623.47;5096482;28;20341;-35
2022/12/12 00:21:41;;;;;;;1.65;1.10;;;;;;;16.32;37.97;95628.03;5096318;28;20465;-34
2022/12/12 00:24:07;;;;;;;2.25;0.98;;;;;;;16.26;38.70;95629.97;5096351;28;20100;-35
2022/12/12 00:26:34;;;;;;;2.33;1.02;;;;;;;16.33;38.62;95626.03;5096030;28;20024;-35
2022/12/12 00:29:02;;;;;;;1.73;1.13;;;;;;;16.26;38.44;95627.25;5095879;28;20086;-34
2022/12/12 00:31:28;;;;;;;1.33;0.93;;;;;;;16.22;38.09;95625.94;5096118;28;20047;-35
2022/12/12 00:33:54;;;;;;;1.10;0.77;;;;;;;16.17;38.51;95614.47;5095703;28;20464;-34
2022/12/12 00:36:23;;;;;;;2.05;1.00;;;;;;;16.23;37.77;95616.50;5096224;28;20031;-34
2022/12/12 00:38:50;;;;;;;1.05;0.80;;;;;;;16.27;38.38;95617.78;5095682;28;20035;-34
2022/12/12 00:41:16;;;;;;;1.63;1.17;;;;;;;16.28;37.37;95624.78;5095783;28;20131;-34
2022/12/12 00:43:42;;;;;;;3.00;1.20;;;;;;;16.23;38.41;95619.22;5094582;28;20118;-34
2022/12/12 00:46:09;;;;;;;1.98;1.27;;;;;;;16.23;38.02;95639.13;5095825;28;20464;-34
2022/12/12 00:48:34;;;;;;;1.55;1.10;;;;;;;16.23;38.08;95627.44;5095644;28;20024;-34
2022/12/12 00:51:06;;;;;;;2.03;1.23;;;;;;;16.27;37.86;95625.25;5095662;28;20051;-34
2022/12/12 00:53:32;;;;;;;1.77;1.13;;;;;;;16.27;37.40;95636.19;5095523;28;20031;-34
2022/12/12 00:55:58;;;;;;;1.77;1.10;;;;;;;16.25;38.21;95631.19;5095658;28;20032;-34
2022/12/12 00:58:25;;;;;;;1.60;1.02;;;;;;;16.20;37.37;95644.81;5095570;28;20526;-35
2022/12/12 01:00:51;;;;;;;4.32;1.13;;;;;;;16.20;37.02;95642.06;5093994;28;20055;-38
2022/12/12 01:03:17;;;;;;;1.73;1.10;;;;;;;16.14;37.55;95642.03;5095379;28;20431;-34
2022/12/12 01:05:43;;;;;;;3.08;0.90;;;;;;;16.15;38.23;95655.25;5095563;28;20020;-34
2022/12/12 01:08:08;;;;;;;2.25;0.98;;;;;;;16.14;37.75;95651.00;5095485;28;20035;-34
2022/12/12 01:10:34;;;;;;;1.85;1.08;;;;;;;16.16;38.06;95653.25;5094912;28;20074;-34
2022/12/12 01:12:59;;;;;;;3.47;1.20;;;;;;;16.12;37.77;95644.50;5094886;28;20035;-34
2022/12/12 01:15:25;;;;;;;2.38;1.10;;;;;;;16.10;37.99;95655.91;5113036;28;20024;-34
2022/12/12 01:17:51;;;;;;;2.22;1.00;;;;;;;16.15;37.06;95657.97;5115805;28;20098;-34
2022/12/12 01:20:24;;;;;;;2.05;0.90;;;;;;;16.16;37.58;95662.22;5114473;28;20019;-34
2022/12/12 01:22:50;;;;;;;1.33;0.93;;;;;;;16.19;37.82;95654.28;5115462;28;20035;-34
2022/12/12 01:25:16;;;;;;;2.90;0.90;;;;;;;16.09;37.08;95664.59;5115385;28;20034;-34
2022/12/12 01:27:42;;;;;;;2.58;0.93;;;;;;;16.07;37.13;95659.59;5115144;28;20059;-34
2022/12/12 01:30:12;;;;;;;1.88;0.80;;;;;;;16.10;37.48;95660.63;5114722;28;20056;-34
2022/12/12 01:32:37;;;;;;;1.05;0.85;;;;;;;16.15;36.87;95663.44;5112088;28;20390;-34
2022/12/12 01:35:07;;;;;;;1.67;0.88;;;;;;;16.14;37.15;95667.41;5115486;28;20023;-34
2022/12/12 01:37:36;;;;;;;2.20;0.98;;;;;;;16.17;37.12;95674.66;5114798;28;20023;-34
2022/12/12 01:40:04;;;;;;;1.92;0.90;;;;;;;16.17;36.99;95680.13;5113605;28;20034;-34
2022/12/12 01:42:30;;;;;;;1.85;0.90;;;;;;;16.12;37.48;95675.34;5114822;28;20467;-34
2022/12/12 01:44:55;;;;;;;1.80;1.10;;;;;;;16.07;36.73;95678.03;5113529;28;20027;-34
2022/12/12 01:47:23;;;;;;;1.60;0.90;;;;;;;16.05;37.39;95677.75;5114961;28;20023;-34
2022/12/12 01:49:54;;;;;;;2.05;0.90;;;;;;;16.06;37.34;95685.47;5114421;27;20376;-34
2022/12/12 01:52:28;;;;;;;1.98;0.90;;;;;;;16.04;37.20;95687.94;5114760;28;20027;-34
2022/12/12 01:54:57;;;;;;;2.13;1.00;;;;;;;16.01;37.46;95694.34;5114608;28;20027;-34
2022/12/12 01:57:31;;;;;;;1.20;0.70;;;;;;;16.03;37.28;95693.88;5114654;28;20478;-35
2022/12/12 01:59:59;;;;;;;1.55;1.02;;;;;;;16.02;37.26;95693.13;5114898;28;20042;-34
2022/12/12 02:02:26;;;;;;;1.33;0.93;;;;;;;16.06;36.91;95693.69;5114388;28;20061;-34
2022/12/12 02:04:51;;;;;;;2.03;1.15;;;;;;;16.00;36.89;95692.84;5114447;28;20039;-34
2022/12/12 02:07:17;;;;;;;1.95;1.00;;;;;;;16.02;36.88;95695.88;5114717;28;20074;-34
2022/12/12 02:09:43;;;;;;;1.20;0.80;;;;;;;16.02;36.66;95690.41;5114939;28;20490;-34
2022/12/12 02:12:13;;;;;;;1.45;0.88;;;;;;;16.04;37.02;95692.66;5114317;28;20386;-34
2022/12/12 02:14:44;;;;;;;1.30;0.80;;;;;;;16.08;37.06;95693.94;5114589;28;20027;-34
2022/12/12 02:17:15;;;;;;;1.02;0.63;;;;;;;16.05;36.98;95697.66;5114709;28;20034;-34
2022/12/12 02:20:02;;;;;;;1.90;0.93;;;;;;;16.03;36.56;95693.88;5114687;28;20065;-34
2022/12/12 02:22:52;;;;;;;2.35;0.70;;;;;;;15.94;37.29;95699.50;5114269;28;20019;-35
2022/12/12 02:25:34;;;;;;;1.10;0.80;;;;;;;16.03;36.58;95702.09;5114280;28;20028;-34
2022/12/12 02:28:00;;;;;;;1.10;0.70;;;;;;;16.09;37.26;95705.63;5114273;28;20015;-34
2022/12/12 02:30:58;;;;;;;1.88;0.80;;;;;;;15.88;36.56;95704.88;5114011;28;20027;-34
2022/12/12 02:33:54;;;;;;;2.03;0.70;;;;;;;15.96;36.61;95713.41;5114180;28;20024;-34
2022/12/12 02:36:19;;;;;;;2.13;0.80;;;;;;;15.94;37.11;95705.72;5113844;28;20046;-35
2022/12/12 02:39:03;;;;;;;1.55;0.70;;;;;;;15.96;37.16;95703.25;5113961;28;20023;-34
2022/12/12 02:41:35;;;;;;;1.50;0.65;;;;;;;15.98;36.90;95706.25;5114034;28;20379;-34
2022/12/12 02:44:03;;;;;;;1.52;0.80;;;;;;;15.97;36.59;95710.22;5114259;28;20027;-34
2022/12/12 02:46:38;;;;;;;1.70;0.80;;;;;;;16.04;37.07;95707.09;5114254;28;20051;-34
2022/12/12 02:49:17;;;;;;;1.88;0.80;;;;;;;16.04;36.93;95709.81;5114178;28;20459;-34
2022/12/12 02:51:44;;;;;;;2.47;0.80;;;;;;;15.98;36.98;95700.78;5114045;28;20028;-34
2022/12/12 02:54:17;;;;;;;2.08;0.88;;;;;;;15.97;36.92;95695.78;5114102;28;20094;-34
2022/12/12 02:56:48;;;;;;;1.57;0.90;;;;;;;16.03;36.55;95702.84;5112876;28;20375;-35
2022/12/12 02:59:32;;;;;;;3.03;0.98;;;;;;;16.02;37.00;95703.31;5113866;28;20367;-34
2022/12/12 03:02:22;;;;;;;3.67;1.02;;;;;;;15.94;37.22;95711.19;5113806;28;20328;-35
2022/12/12 03:08:26;;;;;;;1.48;0.85;;;;;;;15.90;37.27;95707.16;5115973;28;20062;-34
2022/12/12 03:11:03;;;;;;;1.80;1.05;;;;;;;15.87;37.31;95700.66;5117507;28;20030;-34
2022/12/12 03:13:57;;;;;;;2.70;0.88;;;;;;;15.89;37.14;95706.41;5117933;28;20076;-34
2022/12/12 03:16:27;;;;;;;1.30;0.80;;;;;;;15.92;37.09;95713.66;5117748;28;20024;-34
2022/12/12 03:19:14;;;;;;;2.50;0.90;;;;;;;15.94;37.24;95710.44;5117987;28;20027;-34
2022/12/12 03:21:40;;;;;;;3.10;1.00;;;;;;;15.89;37.65;95722.03;5117564;28;20079;-34
2022/12/12 03:24:52;;;;;;;1.08;0.73;;;;;;;15.95;37.32;95722.88;5116394;28;20028;-34
2022/12/12 03:27:26;;;;;;;2.03;0.80;;;;;;;15.92;37.24;95705.44;5103206;28;20080;-34
2022/12/12 03:30:07;;;;;;;1.58;0.80;;;;;;;15.88;37.38;95723.28;5117806;28;20028;-35
2022/12/12 03:32:39;;;;;;;1.02;0.80;;;;;;;15.90;37.39;95712.63;5114388;28;20019;-34
2022/12/12 03:35:40;;;;;;;2.00;1.00;;;;;;;15.92;37.39;95715.63;5117429;28;20398;-34
2022/12/12 03:38:21;;;;;;;1.08;0.85;;;;;;;15.93;37.34;95708.94;5113871;28;20051;-34
2022/12/12 03:40:55;;;;;;;1.73;0.80;;;;;;;16.01;37.65;95710.78;5117930;28;20024;-34
2022/12/12 03:43:28;;;;;;;1.60;0.88;;;;;;;15.94;37.57;95703.00;5117405;28;20023;-36
2022/12/12 03:46:32;;;;;;;1.67;1.05;;;;;;;15.82;37.59;95700.59;5117548;28;20053;-34
2022/12/12 03:49:16;;;;;;;2.13;0.88;;;;;;;15.98;37.71;95695.31;5099582;28;20082;-34
2022/12/12 03:51:56;;;;;;;1.98;0.80;;;;;;;15.92;37.77;95693.75;5117325;28;20034;-34
2022/12/12 03:54:37;;;;;;;2.80;1.00;;;;;;;15.96;37.96;95691.53;5117236;28;20031;-34
2022/12/12 03:57:15;;;;;;;1.50;1.13;;;;;;;15.88;37.93;95693.19;5116951;28;20382;-35
2022/12/12 03:59:46;;;;;;;2.00;1.23;;;;;;;15.89;38.14;95692.72;5117305;28;20054;-34
2022/12/12 04:02:22;;;;;;;2.10;0.80;;;;;;;15.89;38.09;95700.19;5116695;28;20043;-34
2022/12/12 04:05:09;;;;;;;1.45;0.93;;;;;;;15.86;38.14;95695.66;5115828;28;20463;-34
2022/12/12 04:07:42;;;;;;;3.92;1.17;;;;;;;15.97;38.21;95704.75;5115790;28;20027;-34
2022/12/12 04:13:04;;;;;;;1.17;0.93;;;;;;;15.94;38.25;95697.53;5115580;28;20332;-34
2022/12/12 04:15:51;;;;;;;2.05;1.20;;;;;;;15.81;38.59;95694.38;5115770;28;20174;-35
2022/12/12 04:18:23;;;;;;;1.40;1.05;;;;;;;15.73;38.84;95701.47;5115133;28;20024;-34
2022/12/12 04:24:18;;;;;;;2.75;1.30;;;;;;;15.83;38.53;95691.88;5115684;28;20046;-36
2022/12/12 04:26:51;;;;;;;1.73;1.10;;;;;;;15.85;38.60;95689.44;5115334;28;20027;-34
2022/12/12 04:29:25;;;;;;;2.50;1.17;;;;;;;15.86;38.62;95693.66;5115582;28;20084;-34
2022/12/12 04:32:10;;;;;;;1.50;1.00;;;;;;;15.81;38.82;95686.16;5114958;28;20032;-34
2022/12/12 04:35:01;;;;;;;1.38;1.02;;;;;;;15.79;38.89;95683.16;5115430;28;20043;-34
2022/12/12 04:37:33;;;;;;;1.67;0.95;;;;;;;15.87;38.81;95691.69;5115319;28;20027;-34
2022/12/12 04:40:03;;;;;;;1.25;1.00;;;;;;;15.83;38.83;95694.63;5115221;28;20085;-34
2022/12/12 04:42:33;;;;;;;1.83;1.15;;;;;;;15.69;38.88;95700.94;5115464;28;20481;-35
2022/12/12 04:45:05;;;;;;;1.70;1.10;;;;;;;15.81;38.99;95710.78;5115053;28;20368;-34
2022/12/12 04:47:33;;;;;;;1.80;1.20;;;;;;;15.86;38.75;95704.59;5115267;28;20031;-35
2022/12/12 04:50:01;;;;;;;1.27;1.00;;;;;;;15.83;38.73;95713.75;5114976;28;20016;-34
2022/12/12 04:52:32;;;;;;;2.15;1.05;;;;;;;15.80;38.96;95710.03;5115082;28;20023;-34
2022/12/12 04:55:05;;;;;;;2.08;1.10;;;;;;;15.82;38.89;95711.53;5115290;28;20016;-34
2022/12/12 04:57:44;;;;;;;1.50;1.13;;;;;;;15.72;39.07;95705.41;5115102;28;20024;-34
2022/12/12 05:00:11;;;;;;;1.30;1.00;;;;;;;15.75;39.13;95709.94;5113529;28;20386;-35
2022/12/12 05:02:54;;;;;;;2.05;1.10;;;;;;;15.82;38.86;95715.75;5062423;28;1491385;-34
2022/12/12 05:05:36;;;;;;;1.60;1.30;;;;;;;15.71;39.15;95712.13;5115975;28;20053;-34
2022/12/12 05:08:10;;;;;;;2.45;1.17;;;;;;;15.77;39.22;95713.69;5115757;28;20106;-34
2022/12/12 05:10:45;;;;;;;1.08;0.90;;;;;;;15.69;39.12;95717.31;5115190;28;20020;-34
2022/12/12 05:13:22;;;;;;;2.55;0.90;;;;;;;15.83;38.85;95719.22;5115654;28;20051;-35
2022/12/12 05:15:50;;;;;;;1.58;1.30;;;;;;;15.76;38.92;95706.72;5115605;28;20031;-34
2022/12/12 05:18:16;;;;;;;2.53;1.08;;;;;;;15.78;38.98;95714.47;5114176;28;20024;-34
2022/12/12 05:20:41;;;;;;;1.75;1.13;;;;;;;15.73;38.99;95726.06;5101566;28;20375;-34
2022/12/12 05:23:06;;;;;;;1.48;0.90;;;;;;;15.70;39.12;95735.25;5113256;28;20383;-34
2022/12/12 05:25:32;;;;;;;1.67;1.00;;;;;;;15.76;39.18;95730.59;5100327;28;20024;-34
2022/12/12 05:27:57;;;;;;;1.80;1.10;;;;;;;15.75;38.93;95729.06;5092354;28;20043;-35
2022/12/12 05:30:23;;;;;;;2.25;0.98;;;;;;;15.72;39.07;95732.75;5091364;28;20049;-34
2022/12/12 05:32:49;;;;;;;3.88;1.30;;;;;;;15.76;39.18;95733.31;5092941;28;20031;-34
2022/12/12 05:35:15;;;;;;;1.45;1.00;;;;;;;15.74;39.31;95742.00;5092709;28;20034;-34
2022/12/12 05:37:41;;;;;;;2.22;1.30;;;;;;;15.67;39.30;95749.84;5103534;28;20106;-35
2022/12/12 05:40:08;;;;;;;1.60;1.00;;;;;;;15.78;39.17;95737.09;5101157;28;20056;-34
2022/12/12 05:42:34;;;;;;;1.25;1.00;;;;;;;15.70;39.34;95746.16;5091237;28;20034;-34
2022/12/12 05:44:59;;;;;;;1.45;1.20;;;;;;;15.64;39.26;95739.84;5091906;28;20032;-34
2022/12/12 05:47:25;;;;;;;1.48;1.15;;;;;;;15.77;39.17;95745.75;5092157;28;20085;-34
2022/12/12 05:49:51;;;;;;;1.38;0.90;;;;;;;15.71;39.15;95747.66;5091803;28;20024;-35
2022/12/12 05:52:16;;;;;;;1.83;1.00;;;;;;;15.71;39.09;95758.59;5091952;28;20032;-34
2022/12/12 05:54:42;;;;;;;1.42;0.93;;;;;;;15.66;39.18;95772.94;5090802;28;20109;-36
2022/12/12 05:57:08;;;;;;;1.45;1.10;;;;;;;15.79;39.37;95765.19;5092238;28;20406;-35
2022/12/12 05:59:33;;;;;;;1.92;1.02;;;;;;;15.82;39.25;95771.69;5091559;28;20016;-35
2022/12/12 06:01:59;;;;;;;1.63;1.10;;;;;;;15.65;39.29;95771.44;5091380;28;20048;-34
2022/12/12 06:04:24;;;;;;;1.83;1.20;;;;;;;15.77;39.09;95782.06;5094815;28;20686;-34
2022/12/12 06:06:50;;;;;;;2.03;1.52;;;;;;;15.72;38.94;95768.28;5091455;28;20069;-34
2022/12/12 06:09:16;;;;;;;2.35;1.20;;;;;;;15.64;39.40;95775.41;5091387;28;20544;-34
2022/12/12 06:11:42;;;;;;;3.42;1.30;;;;;;;15.80;39.06;95783.09;5091547;28;20052;-34
2022/12/12 06:14:07;;;;;;;2.58;1.08;;;;;;;15.76;39.17;95788.75;5093577;28;20030;-34
2022/12/12 06:16:33;;;;;;;1.70;1.20;;;;;;;15.68;39.29;95790.38;5091755;28;20736;-34
2022/12/12 06:18:59;;;;;;;1.58;1.10;;;;;;;15.65;39.39;95793.31;5091461;28;20146;-35
2022/12/12 06:21:24;;;;;;;2.38;1.40;;;;;;;15.77;39.23;95803.16;5091830;28;20022;-34
2022/12/12 06:23:50;;;;;;;1.25;1.10;;;;;;;15.81;39.30;95795.53;5091667;28;20510;-34
2022/12/12 06:26:18;;;;;;;1.98;1.10;;;;;;;15.73;39.36;95799.88;5089838;28;20107;-34
2022/12/12 06:28:44;;;;;;;1.52;1.10;;;;;;;15.67;39.17;95796.31;5091709;28;20059;-34
2022/12/12 06:31:10;;;;;;;1.45;1.05;;;;;;;15.71;39.44;95792.13;5091353;28;20445;-34
2022/12/12 06:33:36;;;;;;;2.33;1.10;;;;;;;15.76;39.31;95804.41;5096791;28;20032;-34
2022/12/12 06:36:06;;;;;;;2.28;1.23;;;;;;;15.65;39.44;95798.78;5093718;28;20487;-35
2022/12/12 06:38:32;;;;;;;1.85;1.20;;;;;;;15.72;39.77;95798.38;5093511;28;20032;-34
2022/12/12 06:40:58;;;;;;;1.55;0.90;;;;;;;15.67;39.63;95796.31;5093858;28;20364;-33
2022/12/12 06:43:24;;;;;;;1.83;1.10;;;;;;;15.73;39.72;95805.34;5093858;28;20024;-34
2022/12/12 06:45:50;;;;;;;2.08;1.30;;;;;;;15.72;39.54;95804.59;5092945;28;20028;-35
2022/12/12 06:48:16;;;;;;;1.73;1.25;;;;;;;15.68;39.76;95798.56;5093487;28;20024;-34
2022/12/12 06:50:43;;;;;;;2.00;1.50;;;;;;;15.61;39.80;95806.41;5093682;28;20072;-34
2022/12/12 06:53:10;;;;;;;2.58;1.52;;;;;;;15.77;39.80;95814.84;5093153;28;20417;-34
2022/12/12 06:55:43;;;;;;;1.63;1.35;;;;;;;15.70;39.62;95817.25;5096535;28;20031;-34
2022/12/12 06:58:09;;;;;;;2.28;1.52;;;;;;;15.63;39.76;95817.63;5108732;28;20072;-34
2022/12/12 07:00:35;;;;;;;2.10;1.40;;;;;;;15.70;39.61;95811.78;5108009;28;20024;-37
2022/12/12 07:03:01;;;;;;;2.30;1.50;;;;;;;15.69;39.90;95823.94;5091142;28;20472;-34
2022/12/12 07:05:27;;;;;;;3.45;1.48;;;;;;;15.62;40.02;95821.56;5090874;28;20028;-34
2022/12/12 07:07:52;;;;;;;2.38;1.42;;;;;;;15.61;39.69;95815.34;5111231;28;20434;-34
2022/12/12 07:10:18;;;;;;;2.15;1.50;;;;;;;15.62;39.69;95808.66;5101676;28;20110;-34
2022/12/12 07:12:44;;;;;;;2.28;1.63;;;;;;;15.71;39.86;95814.00;5113740;28;20020;-34
2022/12/12 07:15:10;;;;;;;1.67;1.13;;;;;;;15.61;40.10;95825.53;5113896;28;20072;-35
2022/12/12 07:17:35;;;;;;;2.50;1.30;;;;;;;15.64;40.03;95824.59;5113928;28;20391;-34
2022/12/12 07:20:00;;;;;;;1.50;1.20;;;;;;;15.69;39.90;95832.13;5113393;28;20028;-34
2022/12/12 07:22:26;;;;;;;1.98;1.20;;;;;;;15.64;39.91;95828.06;5113745;28;20026;-34
2022/12/12 07:24:51;;;;;;;2.10;1.70;;;;;;;15.49;40.42;95824.56;5113523;28;20149;-34
2022/12/12 07:27:17;;;;;;;2.60;1.67;;;;;;;15.61;40.16;95831.75;5113323;28;20102;-35
2022/12/12 07:29:43;;;;;;;2.47;1.50;;;;;;;15.68;40.25;95847.78;5113376;28;20022;-34
2022/12/12 07:32:09;;;;;;;2.45;1.83;;;;;;;15.65;40.04;95837.03;5092242;28;20118;-35
2022/12/12 07:34:35;;;;;;;2.13;1.42;;;;;;;15.71;40.16;95835.13;5092479;28;20607;-34
2022/12/12 07:37:01;;;;;;;2.53;1.55;;;;;;;15.59;40.20;95847.13;5092186;28;20115;-34
2022/12/12 07:39:29;;;;;;;2.75;1.45;;;;;;;15.70;40.13;95856.25;5092622;28;20031;-34
2022/12/12 07:41:55;;;;;;;2.55;1.42;;;;;;;15.68;40.04;95855.22;5092636;28;20016;-35
2022/12/12 07:44:20;;;;;;;2.30;1.30;;;;;;;15.68;40.15;95877.09;5092948;28;20031;-36
2022/12/12 07:46:46;;;;;;;3.53;2.13;;;;;;;15.56;40.35;95876.16;5095686;28;20375;-34
2022/12/12 07:49:11;;;;;;;3.13;1.48;;;;;;;15.56;40.54;95875.41;5092654;28;20035;-35
2022/12/12 07:51:37;;;;;;;3.95;1.60;;;;;;;15.58;40.34;95892.09;5092995;28;20078;-34
2022/12/12 07:54:04;;;;;;;2.30;1.90;;;;;;;15.63;40.53;95889.44;5093802;28;20487;-34
2022/12/12 07:56:29;;;;;;;3.67;1.73;;;;;;;15.58;40.35;95898.28;5096799;28;20055;-35
2022/12/12 07:58:54;;;;;;;3.85;1.65;;;;;;;15.64;40.45;95899.16;5096715;28;20084;-35
2022/12/12 08:01:23;;;;;;;3.40;1.80;;;;;;;15.60;40.49;95903.28;5096616;28;20515;-34
2022/12/12 08:03:49;;;;;;;2.15;1.70;;;;;;;15.75;40.29;95902.06;5097430;28;20052;-34
2022/12/12 08:06:15;;;;;;;2.50;1.73;;;;;;;15.62;40.24;95893.41;5106747;28;20027;-34
2022/12/12 08:08:42;;;;;;;3.42;1.60;;;;;;;15.61;40.45;95902.81;5112146;28;20102;-36
2022/12/12 08:11:10;;;;;;;3.20;1.67;;;;;;;15.52;40.43;95910.34;5098543;28;20543;-34
2022/12/12 08:13:36;;;;;;;2.35;1.67;;;;;;;15.62;40.55;95914.50;5091781;28;20118;-34
2022/12/12 08:16:04;;;;;;;1.90;1.50;;;;;;;15.63;40.41;95913.28;5089864;28;20034;-34
2022/12/12 08:18:29;;;;;;;3.58;1.83;;;;;;;15.61;40.35;95910.25;5082026;28;20301;-34
2022/12/12 08:20:55;;;;;;;2.17;1.42;;;;;;;15.56;40.60;95905.47;5079682;28;20156;-34
2022/12/12 08:23:20;;;;;;;2.40;1.67;;;;;;;15.62;40.37;95912.53;5080284;28;20292;-34
2022/12/12 08:25:46;;;;;;;3.20;1.63;;;;;;;15.67;40.54;95920.09;5080915;28;20024;-34
2022/12/12 08:28:11;;;;;;;2.13;1.60;;;;;;;15.52;40.88;95924.00;5095543;28;20020;-35
2022/12/12 08:30:37;;;;;;;2.38;1.50;;;;;;;15.71;40.59;95936.28;5095105;28;20020;-35
2022/12/12 08:33:02;;;;;;;5.07;2.08;;;;;;;15.58;40.66;95933.09;5096022;28;20028;-34
2022/12/12 08:35:29;;;;;;;3.33;1.90;;;;;;;15.60;40.67;95927.88;5096038;28;20380;-34
2022/12/12 08:37:55;;;;;;;3.40;1.95;;;;;;;15.56;40.77;95933.56;5095838;28;20460;-36
2022/12/12 08:40:21;;;;;;;3.65;1.85;;;;;;;15.56;40.80;95935.53;5095880;28;20065;-34
2022/12/12 08:42:46;;;;;;;3.17;1.85;;;;;;;15.42;40.99;95929.56;5107491;28;20046;-34
2022/12/12 08:45:12;;;;;;;2.92;1.80;;;;;;;15.54;40.67;95940.69;5115202;28;20374;-34
2022/12/12 08:47:37;;;;;;;3.60;2.10;;;;;;;15.48;40.92;95942.56;5115758;28;20022;-36
2022/12/12 08:50:03;;;;;;;3.38;1.60;;;;;;;15.65;41.11;95946.38;5115544;28;20444;-34
2022/12/12 08:52:29;;;;;;;2.30;1.90;;;;;;;15.54;41.00;95946.91;5116159;28;20126;-34
2022/12/12 08:54:54;;;;;;;2.83;1.80;;;;;;;15.49;41.47;95957.72;5116068;28;20413;-34
2022/12/12 08:57:20;;;;;;;3.63;1.88;;;;;;;15.39;41.20;95957.81;5103699;28;20024;-35
2022/12/12 08:59:45;;;;;;;5.22;2.45;;;;;;;15.51;41.04;95964.25;5095487;28;20020;-36
2022/12/12 09:02:11;;;;;;;3.53;1.92;;;;;;;15.53;41.05;95966.50;5095121;28;20052;-34
2022/12/12 09:04:37;;;;;;;2.63;2.22;;;;;;;15.54;41.29;95979.72;5107604;28;20024;-34
2022/12/12 09:07:03;;;;;;;3.33;1.80;;;;;;;15.63;41.18;95967.94;5115706;28;20073;-34
2022/12/12 09:09:29;;;;;;;3.20;1.73;;;;;;;15.61;41.14;95970.41;5111594;28;20031;-34
2022/12/12 09:11:54;;;;;;;2.47;1.92;;;;;;;15.62;41.23;95974.63;5092755;28;20464;-34
2022/12/12 09:14:20;;;;;;;4.43;1.98;;;;;;;15.61;41.14;95970.41;5094361;28;20351;-34
2022/12/12 09:16:46;;;;;;;3.05;1.70;;;;;;;15.59;41.47;95987.25;5094910;28;20028;-34
2022/12/12 09:19:11;;;;;;;4.45;2.20;;;;;;;15.63;41.35;95982.38;5095057;28;20028;-34
2022/12/12 09:21:37;;;;;;;3.92;2.75;;;;;;;14.62;42.29;95984.31;5095131;28;20024;-34
2022/12/12 09:24:02;;;;;;;7.28;4.47;;;;;;;13.72;43.02;95981.44;5094885;28;20103;-36
2022/12/12 09:26:28;;;;;;;6.03;3.78;;;;;;;14.30;42.54;95986.56;5094774;28;20028;-35
2022/12/12 09:28:53;;;;;;;5.60;3.15;;;;;;;14.77;41.32;95984.38;5094857;28;20103;-35
2022/12/12 09:31:18;;;;;;;4.22;2.97;;;;;;;15.16;41.25;95977.75;5094724;28;20028;-35
2022/12/12 09:33:44;;;;;;;3.60;2.85;;;;;;;15.30;41.01;95970.81;5094247;28;20028;-38
2022/12/12 09:36:13;;;;;;;3.65;2.75;;;;;;;15.29;40.96;95970.06;5094534;28;20024;-35
2022/12/12 09:38:39;;;;;;;4.93;2.80;;;;;;;15.40;40.58;95967.53;5097197;28;20460;-35
2022/12/12 09:41:19;;;;;;;6.32;3.03;;;;;;;15.52;40.84;95978.66;5094895;28;20044;-35
2022/12/12 09:44:02;;;;;;;3.58;2.40;;;;;;;15.45;41.03;95982.53;5094652;28;20084;-35
2022/12/12 09:46:44;;;;;;;4.63;2.42;;;;;;;15.52;41.03;95979.41;5094782;28;20099;-35
2022/12/12 09:49:38;;;;;;;3.80;2.35;;;;;;;15.53;41.08;95978.19;5094662;28;20038;-37
2022/12/12 09:52:04;;;;;;;4.32;2.47;;;;;;;15.51;41.33;95969.69;5087355;28;20123;-36
2022/12/12 09:54:29;;;;;;;3.22;2.40;;;;;;;15.42;41.69;95972.53;5094401;28;20067;-35
2022/12/12 09:57:27;;;;;;;5.18;2.80;;;;;;;15.54;41.29;95976.22;5094600;28;20058;-35
2022/12/12 10:00:13;;;;;;;4.20;2.53;;;;;;;15.49;41.68;95976.84;5094427;28;20020;-35
2022/12/12 10:03:03;;;;;;;3.95;2.45;;;;;;;15.50;41.92;95981.09;5094407;28;20123;-35
2022/12/12 10:05:43;;;;;;;4.00;2.60;;;;;;;15.57;41.78;95978.81;5094395;28;20020;-36
2022/12/12 10:08:20;;;;;;;3.70;2.65;;;;;;;15.50;41.85;95972.91;5094299;28;20098;-36
2022/12/12 10:10:54;;;;;;;3.33;2.55;;;;;;;15.36;42.30;95958.75;5094119;28;20164;-37
2022/12/12 10:13:26;;;;;;;4.00;2.50;;;;;;;15.35;42.45;95961.94;5094316;28;20039;-36
2022/12/12 10:15:57;;;;;;;2.65;2.45;;;;;;;15.49;42.34;95963.19;5093779;28;20424;-35
2022/12/12 10:18:37;;;;;;;5.00;2.65;;;;;;;15.50;42.41;95957.25;5094167;28;20024;-35
2022/12/12 10:21:08;;;;;;;2.53;2.30;;;;;;;15.53;42.48;95961.78;5094093;28;20464;-35
2022/12/12 10:23:45;;;;;;;3.00;2.42;;;;;;;15.56;42.39;95955.44;5094066;28;20035;-35
2022/12/12 10:26:19;;;;;;;5.35;2.70;;;;;;;15.56;42.44;95957.41;5093717;28;20024;-35
2022/12/12 10:28:49;;;;;;;3.85;2.63;;;;;;;15.42;42.75;95951.41;5093831;28;20031;-36
2022/12/12 10:31:31;;;;;;;3.55;2.55;;;;;;;15.59;42.32;95964.63;5093946;28;20392;-36
2022/12/12 10:34:39;;;;;;;3.38;2.40;;;;;;;15.60;42.55;95960.69;5094056;28;20022;-36
2022/12/12 10:37:41;;;;;;;3.58;2.47;;;;;;;15.49;42.94;95965.94;5093463;28;20028;-35
2022/12/12 10:40:22;;;;;;;2.85;2.35;;;;;;;15.56;42.64;95962.88;5093839;28;20032;-35
2022/12/12 10:42:52;;;;;;;2.88;2.00;;;;;;;15.58;42.65;95957.69;5093841;28;20031;-36
2022/12/12 10:45:42;;;;;;;3.38;2.42;;;;;;;15.58;42.77;95961.16;5093586;28;20051;-35
2022/12/12 10:48:08;;;;;;;4.15;2.70;;;;;;;15.65;42.70;95952.59;5093994;28;20023;-35
2022/12/12 10:50:34;;;;;;;4.35;2.67;;;;;;;15.56;42.45;95952.69;5093508;28;20073;-35
2022/12/12 10:53:07;;;;;;;3.40;2.17;;;;;;;15.57;42.54;95956.94;5093662;28;20047;-36
2022/12/12 10:55:39;;;;;;;2.83;2.10;;;;;;;15.54;42.34;95957.09;5093595;28;20486;-36
2022/12/12 10:58:05;;;;;;;3.22;2.40;;;;;;;15.59;42.43;95949.00;5093378;28;20032;-35
2022/12/12 11:00:36;;;;;;;3.03;2.00;;;;;;;15.65;42.31;95946.38;5092241;28;20349;-35
2022/12/12 11:03:13;;;;;;;4.50;2.65;;;;;;;15.55;42.52;95944.97;5113090;28;20411;-36
2022/12/12 11:05:40;;;;;;;3.33;2.45;;;;;;;15.51;42.32;95947.09;5113746;28;20055;-35
2022/12/12 11:08:16;;;;;;;3.30;2.75;;;;;;;15.58;42.30;95941.28;5113817;28;20030;-36
2022/12/12 11:10:42;;;;;;;3.75;2.17;;;;;;;15.42;42.51;95937.75;5113650;28;20024;-35
2022/12/12 11:13:08;;;;;;;3.85;2.60;;;;;;;15.37;42.61;95932.19;5113924;28;20026;-35
2022/12/12 11:15:45;;;;;;;3.20;2.13;;;;;;;15.45;42.56;95939.53;5113754;28;20159;-36
2022/12/12 11:18:21;;;;;;;3.65;2.42;;;;;;;15.36;42.66;95928.69;5113882;28;20027;-35
2022/12/12 11:20:49;;;;;;;4.22;2.60;;;;;;;15.61;42.27;95929.41;5113963;28;20387;-36
2022/12/12 11:23:22;;;;;;;3.28;2.22;;;;;;;15.55;42.32;95912.16;5113652;28;20084;-36
2022/12/12 11:26:00;;;;;;;2.40;1.83;;;;;;;15.40;42.39;95912.88;5113728;28;20031;-36
2022/12/12 11:28:31;;;;;;;3.13;2.20;;;;;;;15.61;42.20;95910.25;5114479;28;20031;-35
2022/12/12 11:31:02;;;;;;;2.92;2.05;;;;;;;15.58;42.15;95903.75;5117714;28;20048;-35
2022/12/12 11:33:51;;;;;;;2.10;1.70;;;;;;;15.53;41.99;95900.91;5117778;28;20031;-35
2022/12/12 11:36:30;;;;;;;2.85;1.98;;;;;;;15.64;41.86;95890.19;5117781;28;20027;-35
2022/12/12 11:38:58;;;;;;;3.33;2.17;;;;;;;15.56;42.13;95895.28;5117560;28;20051;-35
2022/12/12 11:41:24;;;;;;;3.22;2.38;;;;;;;15.61;41.84;95900.09;5109549;28;20121;-35
2022/12/12 11:43:49;;;;;;;2.90;2.22;;;;;;;15.54;42.18;95886.03;5096664;28;20028;-36
2022/12/12 11:46:16;;;;;;;2.97;2.20;;;;;;;15.63;41.92;95894.16;5097005;28;20028;-35
2022/12/12 11:48:50;;;;;;;3.92;2.65;;;;;;;15.59;42.01;95880.66;5096818;28;20106;-36
2022/12/12 11:51:36;;;;;;;3.25;2.45;;;;;;;15.40;42.45;95884.81;5096973;28;20024;-37
2022/12/12 11:54:09;;;;;;;2.90;2.53;;;;;;;15.58;41.95;95878.44;5096788;28;20028;-35
2022/12/12 11:56:37;;;;;;;3.83;2.30;;;;;;;15.60;42.09;95882.19;5097065;28;20024;-35
2022/12/12 11:59:21;;;;;;;4.38;2.47;;;;;;;15.63;41.84;95885.94;5096734;28;20395;-35
2022/12/12 12:02:07;;;;;;;2.83;2.30;;;;;;;15.63;41.92;95889.44;5096176;28;20410;-35